Time;durP1;ratioP1;P1;durP2;ratioP2;P2;SDS_P1;SDS_P2;PMS_P1;PMS_P2;Temp;Humidity;BMP_temperature;BMP_pressure;BME280_temperature;BME280_humidity;BME280_pressure;Samples;Min_cycle;Max_cycle;Signal;HPM_P1;HPM_P2
2023/03/14 00:01:22;;;;;;;3.22;0.65;;;12.40;66.00;;;8.18;100.00;94333.94;4877771;29;20043;-47
2023/03/14 00:03:49;;;;;;;3.17;0.80;;;12.30;67.00;;;8.20;100.00;94345.03;4896188;29;20472;-47
2023/03/14 00:06:17;;;;;;;3.83;0.90;;;12.40;66.30;;;8.18;100.00;94341.88;4895266;29;20031;-49
2023/03/14 00:08:44;;;;;;;3.33;0.88;;;12.30;66.30;;;8.08;100.00;94344.59;4896211;29;20502;-48
2023/03/14 00:11:19;;;;;;;3.80;0.75;;;12.30;66.30;;;8.06;100.00;94363.47;4896620;29;20447;-51
2023/03/14 00:13:53;;;;;;;2.30;0.80;;;12.30;66.50;;;8.06;100.00;94370.63;4895696;29;20371;-50
2023/03/14 00:16:20;;;;;;;2.20;0.60;;;12.30;66.70;;;8.04;100.00;94365.59;4896489;29;20110;-49
2023/03/14 00:18:46;;;;;;;2.63;0.77;;;12.30;66.60;;;8.02;100.00;94366.94;4895043;29;20028;-48
2023/03/14 00:21:13;;;;;;;2.95;0.50;;;12.20;66.50;;;8.01;100.00;94349.44;4895980;29;20042;-48
2023/03/14 00:23:41;;;;;;;2.90;0.70;;;12.20;66.60;;;7.99;100.00;94349.75;4896130;29;20129;-48
2023/03/14 00:26:13;;;;;;;3.78;0.82;;;12.20;66.80;;;7.95;100.00;94346.03;4893147;29;20467;-51
2023/03/14 00:28:41;;;;;;;2.88;0.70;;;12.20;66.80;;;7.92;100.00;94322.72;4896073;29;20032;-50
2023/03/14 00:31:11;;;;;;;5.35;1.20;;;12.20;66.80;;;7.90;100.00;94295.72;4894817;29;20032;-47
2023/03/14 00:33:37;;;;;;;4.78;1.02;;;12.20;66.80;;;7.85;100.00;94263.94;4878763;29;20028;-47
2023/03/14 00:36:08;;;;;;;2.25;0.60;;;12.20;66.80;;;7.78;100.00;94234.31;4894969;29;20173;-47
2023/03/14 00:38:35;;;;;;;0.60;0.60;;;12.20;67.00;;;7.77;100.00;94209.69;4896079;29;20044;-47
2023/03/14 00:41:12;;;;;;;0.93;0.40;;;12.10;66.90;;;7.62;100.00;94210.59;4898531;29;20035;-47
2023/03/14 00:43:38;;;;;;;1.48;0.40;;;12.10;67.10;;;7.58;100.00;94220.19;4898513;29;20042;-49
2023/03/14 00:46:05;;;;;;;0.40;0.30;;;12.00;67.00;;;7.53;100.00;94219.44;4887979;29;20480;-50
2023/03/14 00:48:32;;;;;;;0.30;0.30;;;11.90;67.00;;;7.49;100.00;94213.91;4896430;29;20036;-47
2023/03/14 00:50:58;;;;;;;0.47;0.30;;;11.90;67.10;;;7.47;100.00;94199.34;4900104;29;20066;-50
2023/03/14 00:53:24;;;;;;;0.40;0.30;;;11.80;67.20;;;7.45;100.00;94207.56;4899578;29;20432;-47
2023/03/14 00:55:50;;;;;;;0.30;0.30;;;11.80;67.30;;;7.40;100.00;94231.47;4898548;29;20046;-50
2023/03/14 00:58:18;;;;;;;0.75;0.40;;;11.70;67.20;;;7.34;100.00;94237.88;4899055;29;20031;-48
2023/03/14 01:00:45;;;;;;;0.30;0.30;;;11.70;67.30;;;7.30;100.00;94260.66;4898302;29;20459;-47
2023/03/14 01:03:14;;;;;;;1.13;0.30;;;11.60;67.30;;;7.25;100.00;94255.41;4899650;29;20024;-51
2023/03/14 01:05:40;;;;;;;0.20;0.20;;;11.60;67.40;;;7.24;100.00;94246.69;4899031;29;20064;-56
2023/03/14 01:08:07;;;;;;;0.20;0.20;;;11.50;67.50;;;7.21;100.00;94235.81;4899113;29;20032;-52
2023/03/14 01:10:39;;;;;;;0.30;0.30;;;11.50;67.50;;;7.14;100.00;94239.56;4898439;29;20036;-55
2023/03/14 01:13:06;;;;;;;0.30;0.30;;;11.50;67.80;;;7.12;100.00;94248.88;4890609;29;20028;-55
2023/03/14 01:15:34;;;;;;;0.40;0.20;;;11.40;67.60;;;7.08;100.00;94234.59;4899114;29;20159;-56
2023/03/14 01:18:00;;;;;;;0.30;0.30;;;11.40;67.80;;;7.06;100.00;94248.13;4898462;29;20027;-55
2023/03/14 01:20:26;;;;;;;0.30;0.30;;;11.40;67.80;;;7.11;100.00;94255.22;4899380;29;20075;-53
2023/03/14 01:22:52;;;;;;;0.70;0.60;;;11.40;67.80;;;7.11;100.00;94253.38;4899345;29;20016;-48
2023/03/14 01:25:18;;;;;;;1.50;0.85;;;11.40;67.90;;;7.06;100.00;94244.69;4897948;29;20039;-56
2023/03/14 01:27:45;;;;;;;0.90;0.55;;;11.30;67.90;;;7.09;100.00;94244.91;4899137;29;20035;-54
2023/03/14 01:30:13;;;;;;;0.75;0.52;;;11.30;68.00;;;7.05;100.00;94237.78;4897864;29;20102;-55
2023/03/14 01:32:39;;;;;;;0.30;0.30;;;11.40;68.20;;;7.05;100.00;94235.94;4899811;29;20032;-49
2023/03/14 01:35:06;;;;;;;0.30;0.30;;;11.30;68.10;;;7.08;100.00;94230.09;4898737;29;20044;-48
2023/03/14 01:37:32;;;;;;;0.30;0.30;;;11.30;68.20;;;7.11;100.00;94234.03;4898281;29;20032;-50
2023/03/14 01:43:58;;;;;;;0.50;0.40;;;11.30;68.30;;;7.17;100.00;94214.41;4897949;29;20039;-48
2023/03/14 01:46:37;;;;;;;0.35;0.35;;;11.30;68.20;;;7.15;100.00;94208.59;4899084;29;20503;-50
2023/03/14 01:49:26;;;;;;;0.50;0.28;;;11.30;68.40;;;7.15;100.00;94206.75;4894148;29;20043;-52
2023/03/14 01:52:09;;;;;;;0.30;0.20;;;11.30;68.40;;;7.19;100.00;94209.63;4897258;29;20032;-51
2023/03/14 01:54:38;;;;;;;;;;;11.30;68.40;;;7.16;100.00;94204.88;4875630;29;20040;-52
2023/03/14 01:57:17;;;;;;;0.20;0.20;;;11.30;67.90;;;7.15;99.51;94196.16;4898611;29;20005;-52
2023/03/14 01:59:59;;;;;;;0.20;0.20;;;11.30;68.10;;;7.15;99.45;94187.41;4896355;29;20383;-52
2023/03/14 02:05:27;;;;;;;0.17;0.17;;;11.20;67.90;;;7.09;97.88;94168.13;4886792;29;20461;-51
2023/03/14 02:07:58;;;;;;;0.20;0.20;;;11.30;68.10;;;7.09;98.51;94154.88;4895803;29;20031;-51
2023/03/14 02:10:44;;;;;;;0.28;0.28;;;11.20;68.00;;;7.09;98.91;94146.94;4897327;29;20398;-50
2023/03/14 02:13:12;;;;;;;0.50;0.30;;;11.20;68.00;;;7.03;99.31;94161.28;4889570;29;20115;-51
2023/03/14 02:15:40;;;;;;;2.17;1.40;;;11.20;68.00;;;6.98;98.63;94145.44;4897909;29;20443;-49
2023/03/14 02:18:08;;;;;;;0.55;0.40;;;11.20;67.90;;;6.98;98.54;94152.59;4896789;29;20022;-49
2023/03/14 02:21:37;;;;;;;0.20;0.20;;;11.20;68.00;;;6.98;98.01;94144.66;4881453;29;20078;-49
2023/03/14 02:24:43;;;;;;;0.45;0.30;;;11.20;68.00;;;7.03;98.91;94149.91;4822928;29;20079;-49
2023/03/14 02:27:17;;;;;;;0.17;0.13;;;11.10;68.00;;;6.97;96.34;94145.72;4859607;29;20044;-51
2023/03/14 02:30:13;;;;;;;0.32;0.20;;;11.10;68.00;;;7.02;96.61;94127.94;4897322;29;20024;-53
2023/03/14 02:32:47;;;;;;;3.10;0.30;;;11.20;68.10;;;7.03;97.02;94118.91;4870147;29;20036;-48
2023/03/14 02:35:26;;;;;;;0.20;0.20;;;11.20;68.00;;;7.02;96.38;94122.66;4897651;29;20036;-48
2023/03/14 02:38:30;;;;;;;0.30;0.20;;;11.20;68.00;;;7.05;96.44;94123.94;4895305;29;20024;-48
2023/03/14 02:40:57;;;;;;;0.20;0.20;;;11.20;67.90;;;7.04;96.04;94114.41;4886795;29;20047;-49
2023/03/14 02:43:23;;;;;;;0.73;0.20;;;11.20;68.70;;;7.06;95.02;94115.72;4885807;29;20025;-48
2023/03/14 02:45:52;;;;;;;0.20;0.20;;;11.20;67.90;;;7.08;94.12;94108.31;4897714;29;20036;-50
2023/03/14 02:48:26;;;;;;;0.22;0.20;;;11.20;67.90;;;7.14;93.99;94107.16;4895928;29;20064;-48
2023/03/14 02:50:57;;;;;;;0.20;0.20;;;11.30;67.90;;;7.16;93.69;94106.91;4897401;29;20027;-48
2023/03/14 02:53:33;;;;;;;1.00;0.20;;;11.30;67.90;;;7.15;92.65;94095.53;4897362;29;20506;-49
2023/03/14 02:56:01;;;;;;;0.45;0.20;;;11.40;68.60;;;7.15;91.51;94090.22;4896432;29;20459;-48
2023/03/14 02:58:28;;;;;;;0.20;0.20;;;11.40;67.70;;;7.22;92.26;94089.91;4895811;29;20024;-48
2023/03/14 03:00:54;;;;;;;0.20;0.20;;;11.40;67.50;;;7.22;92.35;94087.25;4895942;29;20368;-48
2023/03/14 03:03:21;;;;;;;0.47;0.20;;;11.50;67.50;;;7.20;92.13;94086.72;4896136;29;20103;-48
2023/03/14 03:05:54;;;;;;;0.20;0.20;;;11.50;67.30;;;7.18;92.01;94089.66;4896117;29;20031;-57
2023/03/14 03:08:24;;;;;;;0.50;0.30;;;11.50;67.30;;;7.15;92.07;94087.56;4897059;29;20505;-48
2023/03/14 03:10:51;;;;;;;0.65;0.65;;;11.50;67.20;;;7.18;92.53;94086.22;4897171;29;20031;-52
2023/03/14 03:13:18;;;;;;;0.20;0.20;;;11.50;67.20;;;7.17;93.07;94093.38;4895820;29;20471;-51
2023/03/14 03:15:45;;;;;;;0.20;0.20;;;11.50;67.10;;;7.10;92.45;94079.66;4896849;29;20087;-50
2023/03/14 03:18:12;;;;;;;0.65;0.20;;;11.50;67.00;;;7.10;92.92;94087.63;4895782;29;20395;-50
2023/03/14 03:20:38;;;;;;;0.20;0.20;;;11.50;67.00;;;7.11;92.92;94086.56;4896729;29;20083;-51
2023/03/14 03:23:04;;;;;;;0.10;0.10;;;11.50;67.00;;;7.12;92.89;94088.13;4897103;29;20024;-48
2023/03/14 03:25:30;;;;;;;0.20;0.20;;;11.50;66.90;;;7.09;92.77;94078.09;4895853;29;20111;-48
2023/03/14 03:27:57;;;;;;;1.40;0.20;;;11.50;66.90;;;7.14;93.72;94085.19;4896582;29;20051;-55
2023/03/14 03:30:24;;;;;;;0.10;0.10;;;11.60;66.90;;;7.12;94.50;94080.19;4895290;29;20106;-51
2023/03/14 03:32:49;;;;;;;0.40;0.20;;;11.50;66.90;;;7.09;94.24;94075.44;4896688;29;20376;-49
2023/03/14 03:35:16;;;;;;;0.40;0.20;;;11.50;67.50;;;7.06;94.43;94070.72;4896424;29;20114;-48
2023/03/14 03:37:42;;;;;;;0.15;0.15;;;11.50;66.70;;;7.03;94.82;94068.63;4895440;29;20024;-50
2023/03/14 03:40:09;;;;;;;0.10;0.10;;;11.50;67.60;;;7.00;95.27;94060.44;4896828;29;20034;-49
2023/03/14 03:42:36;;;;;;;0.20;0.20;;;11.50;66.70;;;6.97;95.30;94051.19;4895859;29;20379;-50
2023/03/14 03:45:04;;;;;;;0.70;0.30;;;11.50;67.60;;;6.99;95.43;94061.50;4896022;29;20092;-49
2023/03/14 03:47:31;;;;;;;0.43;0.20;;;11.50;66.80;;;6.93;95.33;94060.78;4895901;29;20047;-48
2023/03/14 03:49:57;;;;;;;0.38;0.20;;;11.50;66.80;;;6.93;95.32;94058.91;4895844;29;20047;-49
2023/03/14 03:52:23;;;;;;;0.73;0.30;;;11.40;66.70;;;6.94;95.45;94065.00;4896593;29;20059;-48
2023/03/14 03:54:49;;;;;;;0.30;0.20;;;11.50;66.70;;;6.92;94.76;94053.88;4881372;29;20039;-48
2023/03/14 03:57:15;;;;;;;0.22;0.20;;;11.40;66.60;;;6.89;95.11;94059.72;4896232;29;20024;-55
2023/03/14 03:59:40;;;;;;;0.20;0.20;;;11.40;66.70;;;6.92;95.19;94048.59;4896263;29;20031;-54
2023/03/14 04:02:07;;;;;;;0.80;0.20;;;11.40;66.70;;;6.86;94.67;94031.97;4882756;29;20086;-49
2023/03/14 04:04:33;;;;;;;0.20;0.20;;;11.40;66.80;;;6.86;94.73;94016.09;4895974;29;20062;-53
2023/03/14 04:06:59;;;;;;;0.20;0.20;;;11.40;66.80;;;6.86;94.59;94031.16;4894961;29;20055;-48
2023/03/14 04:09:25;;;;;;;0.20;0.20;;;11.40;66.90;;;6.89;95.52;94041.19;4896043;29;20031;-48
2023/03/14 04:11:51;;;;;;;0.20;0.20;;;11.40;66.80;;;6.85;94.78;94025.09;4894937;29;20387;-49
2023/03/14 04:14:17;;;;;;;0.30;0.20;;;11.40;66.70;;;6.87;94.84;94028.25;4896909;29;20035;-55
2023/03/14 04:16:42;;;;;;;0.20;0.20;;;11.40;66.70;;;6.88;95.41;94029.03;4883133;29;20475;-51
2023/03/14 04:19:08;;;;;;;0.30;0.20;;;11.40;66.60;;;6.83;94.97;94019.31;4898862;29;20024;-49
2023/03/14 04:21:34;;;;;;;0.20;0.20;;;11.40;66.60;;;6.81;94.90;94010.84;4899955;29;20123;-49
2023/03/14 04:24:00;;;;;;;0.20;0.20;;;11.30;66.60;;;6.85;95.00;94025.09;4898935;29;20024;-48
2023/03/14 04:26:26;;;;;;;0.25;0.20;;;11.30;66.60;;;6.81;94.76;94018.78;4899619;29;20040;-48
2023/03/14 04:32:51;;;;;;;0.20;0.20;;;11.30;66.60;;;6.77;94.62;94015.13;4898417;29;20395;-48
2023/03/14 04:35:17;;;;;;;0.30;0.30;;;11.30;66.70;;;6.77;94.83;94025.72;4896753;29;20040;-51
2023/03/14 04:37:43;;;;;;;0.30;0.20;;;11.30;66.70;;;6.77;94.79;94023.06;4898419;29;20032;-51
2023/03/14 04:40:11;;;;;;;0.40;0.30;;;11.30;66.70;;;6.77;94.83;94014.31;4899934;29;20087;-51
2023/03/14 04:42:37;;;;;;;0.20;0.20;;;11.30;67.50;;;6.75;94.91;93997.94;4898457;29;20023;-49
2023/03/14 04:45:03;;;;;;;0.28;0.28;;;11.20;66.50;;;6.70;94.90;93993.47;4899681;29;20404;-48
2023/03/14 04:47:29;;;;;;;0.98;0.20;;;11.30;66.50;;;6.62;94.47;93975.56;4898640;29;20052;-56
2023/03/14 04:49:55;;;;;;;0.22;0.22;;;11.20;66.30;;;6.63;92.55;93974.50;4898608;29;20038;-50
2023/03/14 04:52:21;;;;;;;0.20;0.20;;;11.20;66.40;;;6.67;91.09;93976.28;4899378;29;20054;-49
2023/03/14 04:54:47;;;;;;;0.20;0.20;;;11.20;66.40;;;6.78;89.96;93968.28;4888525;29;20040;-50
2023/03/14 04:57:12;;;;;;;0.20;0.20;;;11.20;66.60;;;6.90;88.47;93953.59;4899338;29;20395;-48
2023/03/14 04:59:38;;;;;;;0.20;0.20;;;11.20;66.60;;;6.94;89.08;93957.25;4899481;29;20111;-48
2023/03/14 05:02:04;;;;;;;1.10;0.30;;;11.20;66.50;;;6.95;89.43;93958.03;4901320;23;20062;-55
2023/03/14 05:04:32;;;;;;;0.20;0.20;;;11.30;66.50;;;6.94;89.88;93951.94;4878862;29;20464;-54
2023/03/14 05:06:59;;;;;;;1.45;0.30;;;11.30;67.10;;;6.90;91.09;93964.19;4879632;29;20025;-49
2023/03/14 05:09:25;;;;;;;1.67;0.40;;;11.30;66.10;;;6.82;91.69;93948.91;4880715;29;20040;-51
2023/03/14 05:11:51;;;;;;;0.30;0.20;;;11.30;66.00;;;6.78;91.89;93947.09;4865504;29;20017;-53
2023/03/14 05:14:17;;;;;;;1.05;0.22;;;11.30;65.80;;;6.74;92.24;93931.00;4861930;29;20036;-55
2023/03/14 05:16:43;;;;;;;0.20;0.20;;;11.20;65.70;;;6.65;92.81;93936.09;4861633;29;20037;-51
2023/03/14 05:19:10;;;;;;;0.20;0.17;;;11.20;65.70;;;6.58;92.79;93926.91;4861033;29;20028;-49
2023/03/14 05:21:36;;;;;;;0.17;0.17;;;11.10;65.60;;;6.55;93.11;93927.47;4862063;29;20144;-51
2023/03/14 05:24:03;;;;;;;0.22;0.22;;;11.10;65.70;;;6.51;92.31;93919.28;4861106;29;20032;-53
2023/03/14 05:26:29;;;;;;;0.38;0.28;;;11.10;65.70;;;6.57;90.86;93914.75;4850841;29;20377;-52
2023/03/14 05:28:55;;;;;;;0.38;0.32;;;11.00;65.90;;;6.62;89.59;93904.91;4861815;29;20476;-53
2023/03/14 05:31:21;;;;;;;1.20;0.30;;;11.00;66.00;;;6.66;89.42;93903.28;4863093;29;20064;-49
2023/03/14 05:33:47;;;;;;;0.30;0.20;;;11.00;65.90;;;6.72;89.62;93898.72;4861711;29;20487;-50
2023/03/14 05:36:13;;;;;;;0.28;0.28;;;11.10;66.00;;;6.73;88.25;93889.72;4863615;29;20405;-50
2023/03/14 05:38:39;;;;;;;1.15;0.30;;;11.10;66.00;;;6.75;86.48;93871.69;4864746;29;20512;-50
2023/03/14 05:41:05;;;;;;;1.33;0.30;;;11.10;65.80;;;6.86;84.05;93869.72;4861458;29;20176;-52
2023/03/14 05:43:31;;;;;;;0.70;0.30;;;11.10;65.80;;;6.92;84.08;93868.59;4860506;29;20376;-51
2023/03/14 05:45:57;;;;;;;0.50;0.20;;;11.20;65.60;;;6.95;83.39;93858.22;4852234;29;20029;-54
2023/03/14 05:48:22;;;;;;;0.20;0.20;;;11.20;65.50;;;7.00;83.71;93862.69;4874476;29;20025;-52
2023/03/14 05:50:55;;;;;;;0.30;0.30;;;11.30;65.30;;;7.01;84.27;93858.16;4875798;29;20056;-49
2023/03/14 05:53:21;;;;;;;0.28;0.25;;;11.30;65.20;;;6.93;84.98;93865.66;4861573;29;20448;-49
2023/03/14 05:55:47;;;;;;;0.32;0.30;;;11.30;65.00;;;6.87;85.76;93866.81;4865615;29;20109;-50
2023/03/14 05:58:13;;;;;;;0.20;0.20;;;11.30;64.70;;;6.85;86.36;93860.22;4861082;29;20111;-51
2023/03/14 06:00:39;;;;;;;0.52;0.30;;;11.30;64.60;;;6.77;86.55;93853.69;4859896;29;20048;-51
2023/03/14 06:03:04;;;;;;;0.35;0.30;;;11.30;64.50;;;6.72;86.86;93856.38;4858196;29;20025;-50
2023/03/14 06:05:30;;;;;;;1.05;0.50;;;11.20;64.40;;;6.67;87.25;93853.78;4868555;29;20035;-53
2023/03/14 06:07:56;;;;;;;0.32;0.30;;;11.20;64.30;;;6.64;86.96;93847.22;4862487;29;20157;-49
2023/03/14 06:10:22;;;;;;;0.68;0.50;;;11.20;64.30;;;6.63;87.37;93845.63;4861124;29;20041;-48
2023/03/14 06:12:48;;;;;;;0.45;0.40;;;11.20;64.40;;;6.61;87.47;93839.03;4859725;29;20021;-49
2023/03/14 06:15:14;;;;;;;0.25;0.25;;;11.20;64.30;;;6.57;86.91;93840.69;4861438;29;20033;-51
2023/03/14 06:17:39;;;;;;;0.30;0.20;;;11.10;64.30;;;6.57;86.32;93841.47;4862186;29;20476;-49
2023/03/14 06:20:06;;;;;;;0.20;0.20;;;11.10;64.30;;;6.61;84.46;93847.78;4860015;29;20040;-49
2023/03/14 06:22:32;;;;;;;1.40;0.55;;;11.10;64.40;;;6.66;86.21;93855.66;4860680;29;20526;-52
2023/03/14 06:24:58;;;;;;;0.20;0.20;;;11.10;64.40;;;6.65;85.43;93848.00;4833321;29;20119;-49
2023/03/14 06:27:24;;;;;;;0.45;0.20;;;11.20;64.30;;;6.68;85.01;93852.72;4864493;29;20061;-51
2023/03/14 06:29:49;;;;;;;1.40;0.30;;;11.20;64.30;;;6.73;84.54;93848.16;4860161;29;20100;-51
2023/03/14 06:32:15;;;;;;;0.93;0.30;;;11.20;64.20;;;6.76;84.22;93846.03;4862651;29;20496;-51
2023/03/14 06:34:41;;;;;;;0.50;0.30;;;11.20;64.10;;;6.77;84.01;93847.59;4859547;29;20033;-49
2023/03/14 06:37:07;;;;;;;1.90;0.30;;;11.30;64.90;;;6.81;84.59;93857.34;4857787;29;20399;-50
2023/03/14 06:39:33;;;;;;;0.50;0.30;;;11.30;63.90;;;6.81;83.65;93854.69;4860624;29;20040;-50
2023/03/14 06:41:58;;;;;;;0.43;0.20;;;11.30;63.80;;;6.76;83.58;93852.09;4858855;29;20029;-53
2023/03/14 06:44:24;;;;;;;0.30;0.30;;;11.30;63.70;;;6.77;84.54;93856.34;4860404;29;20040;-52
2023/03/14 06:46:50;;;;;;;0.30;0.28;;;11.30;63.60;;;6.75;84.25;93862.97;4860455;29;20157;-51
2023/03/14 06:49:16;;;;;;;0.40;0.40;;;11.40;63.60;;;6.75;84.30;93863.75;4873227;29;20028;-50
2023/03/14 06:51:42;;;;;;;0.30;0.30;;;11.30;63.40;;;6.73;84.56;93871.97;4859687;29;20552;-52
2023/03/14 06:54:07;;;;;;;3.28;0.45;;;11.30;63.30;;;6.73;84.47;93866.66;4814322;29;20371;-51
2023/03/14 06:56:33;;;;;;;0.45;0.32;;;11.30;63.20;;;6.73;84.85;93869.31;4869404;29;20017;-50
2023/03/14 06:58:59;;;;;;;1.52;0.30;;;11.40;63.20;;;6.69;84.88;93880.75;4862872;29;20387;-50
2023/03/14 07:01:30;;;;;;;1.17;0.30;;;11.40;63.10;;;6.68;83.74;93879.97;4867874;29;20053;-49
2023/03/14 07:03:56;;;;;;;0.40;0.40;;;11.40;63.00;;;6.74;83.63;93878.06;4860189;29;20032;-51
2023/03/14 07:06:22;;;;;;;0.88;0.50;;;11.50;63.00;;;6.82;83.69;93885.38;4858997;29;20472;-48
2023/03/14 07:08:49;;;;;;;0.55;0.30;;;11.50;62.90;;;6.84;83.84;93888.53;4859881;29;20095;-50
2023/03/14 07:11:14;;;;;;;0.80;0.30;;;11.50;62.70;;;6.91;83.62;93901.44;4861501;29;20518;-50
2023/03/14 07:13:41;;;;;;;1.90;0.47;;;11.60;62.70;;;6.93;83.33;93905.38;4862107;29;20070;-52
2023/03/14 07:16:08;;;;;;;0.30;0.30;;;11.70;62.60;;;6.99;83.31;93914.06;4859658;29;20033;-47
2023/03/14 07:18:34;;;;;;;1.48;0.60;;;11.80;62.50;;;7.08;82.04;93906.25;4858927;29;20396;-47
2023/03/14 07:21:00;;;;;;;1.23;0.40;;;11.90;62.10;;;7.29;82.40;93915.53;4860054;29;20392;-50
2023/03/14 07:23:26;;;;;;;2.50;0.40;;;12.20;62.00;;;7.49;81.60;93932.25;4859933;29;20029;-49
2023/03/14 07:25:53;;;;;;;1.60;0.38;;;12.40;61.80;;;7.74;80.70;93925.81;4861115;29;20033;-50
2023/03/14 07:28:19;;;;;;;1.13;0.40;;;12.70;61.60;;;7.96;77.82;93927.88;4860614;29;20074;-48
2023/03/14 07:30:47;;;;;;;0.55;0.45;;;13.10;61.20;;;8.16;77.02;93930.25;4864936;29;20040;-50
2023/03/14 07:33:13;;;;;;;0.35;0.30;;;13.40;60.60;;;8.16;75.67;93932.13;4864132;29;20050;-48
2023/03/14 07:35:39;;;;;;;1.02;0.30;;;13.50;60.00;;;8.29;77.06;93942.75;4858735;29;20056;-49
2023/03/14 07:38:05;;;;;;;0.40;0.40;;;13.60;59.80;;;8.34;77.47;93944.56;4869560;29;20543;-52
2023/03/14 07:40:31;;;;;;;0.90;0.70;;;13.60;59.60;;;8.47;76.45;93951.03;4857214;29;20404;-49
2023/03/14 07:42:57;;;;;;;1.02;0.40;;;13.70;59.60;;;8.41;75.90;93945.00;4857674;29;20052;-51
2023/03/14 07:45:23;;;;;;;0.85;0.40;;;13.70;59.40;;;8.22;75.56;93944.22;4858415;29;20488;-47
2023/03/14 07:47:49;;;;;;;0.40;0.40;;;13.70;58.90;;;8.31;76.15;93945.16;4859220;29;20060;-51
2023/03/14 07:50:15;;;;;;;0.47;0.32;;;13.80;58.80;;;8.28;76.11;93949.16;4858213;29;20079;-49
2023/03/14 07:52:41;;;;;;;0.60;0.30;;;13.80;58.50;;;8.27;75.66;93947.59;4870739;29;20469;-51
2023/03/14 07:55:08;;;;;;;0.50;0.50;;;13.80;58.30;;;8.31;76.09;93953.09;4858170;29;20096;-51
2023/03/14 07:57:34;;;;;;;1.13;0.40;;;13.80;58.30;;;8.34;76.19;93952.53;4859277;29;20025;-51
2023/03/14 08:00:00;;;;;;;1.42;0.50;;;13.80;58.20;;;8.32;76.19;93947.50;4868470;29;20556;-48
2023/03/14 08:02:25;;;;;;;0.95;0.40;;;13.80;58.00;;;8.40;74.91;93959.34;4857287;29;20059;-48
2023/03/14 08:04:51;;;;;;;1.20;0.43;;;13.80;58.00;;;8.38;74.65;93952.72;4862882;29;20057;-48
2023/03/14 08:07:17;;;;;;;0.65;0.50;;;13.80;57.90;;;8.41;74.14;93958.28;4856943;29;20024;-48
2023/03/14 08:09:44;;;;;;;0.57;0.38;;;13.80;57.70;;;8.49;74.69;93967.41;4858426;29;20043;-50
2023/03/14 08:12:10;;;;;;;0.52;0.30;;;13.80;57.50;;;8.43;74.13;93960.63;4857933;29;22203;-51
2023/03/14 08:14:36;;;;;;;0.47;0.40;;;13.90;57.30;;;8.47;74.28;93962.41;4858587;29;20033;-49
2023/03/14 08:17:01;;;;;;;0.63;0.30;;;13.90;57.00;;;8.44;74.54;93957.69;4859341;29;20017;-51
2023/03/14 08:19:27;;;;;;;1.58;0.50;;;13.90;56.80;;;8.49;74.90;93962.13;4861154;29;20036;-49
2023/03/14 08:21:54;;;;;;;1.77;0.40;;;13.90;56.60;;;8.46;74.66;93968.81;4858489;29;20466;-50
2023/03/14 08:24:19;;;;;;;1.10;0.60;;;13.90;56.40;;;8.48;73.85;93953.38;4857905;29;20086;-48
2023/03/14 08:26:45;;;;;;;0.77;0.50;;;13.90;56.20;;;8.44;74.43;93964.88;4858970;29;20381;-49
2023/03/14 08:29:12;;;;;;;0.50;0.40;;;13.90;55.90;;;8.53;74.13;93963.91;4859084;29;20085;-48
2023/03/14 08:31:38;;;;;;;0.68;0.50;;;13.90;56.00;;;8.43;74.32;93965.94;4838599;29;20488;-48
2023/03/14 08:34:06;;;;;;;0.30;0.30;;;14.00;55.70;;;8.45;74.47;93964.56;4858716;29;20036;-47
2023/03/14 08:36:33;;;;;;;0.73;0.40;;;13.90;55.50;;;8.52;75.34;93954.38;4852828;29;20076;-48
2023/03/14 08:38:59;;;;;;;0.95;0.40;;;14.00;55.60;;;8.66;76.26;93959.72;4857885;29;20370;-52
2023/03/14 08:41:25;;;;;;;0.60;0.40;;;14.10;55.60;;;8.70;75.92;93947.44;4850745;29;20125;-48
2023/03/14 08:43:51;;;;;;;2.53;0.50;;;14.20;55.50;;;8.77;75.29;93942.53;4867118;29;20084;-48
2023/03/14 08:46:16;;;;;;;0.40;0.40;;;14.40;55.40;;;8.86;74.20;93933.88;4858840;29;20024;-48
2023/03/14 08:48:42;;;;;;;3.40;0.50;;;14.60;55.30;;;8.97;74.16;93938.72;4872720;29;20186;-48
2023/03/14 08:51:16;;;;;;;0.88;0.35;;;14.70;55.00;;;9.10;74.51;93941.69;4858578;29;20029;-47
2023/03/14 08:53:43;;;;;;;1.00;0.50;;;14.90;54.80;;;9.22;74.18;93929.50;4858759;29;20107;-49
2023/03/14 08:56:10;;;;;;;0.50;0.50;;;15.00;54.60;;;9.31;73.85;93947.38;4857799;29;20029;-47
2023/03/14 08:58:37;;;;;;;1.58;0.50;;;15.20;54.40;;;9.34;73.99;93950.25;4872791;29;20056;-49
2023/03/14 09:01:10;;;;;;;1.17;0.50;;;15.40;54.10;;;9.40;72.66;93948.25;4858157;29;20051;-53
2023/03/14 09:03:37;;;;;;;0.65;0.57;;;15.60;53.80;;;9.29;73.24;93955.66;4861746;29;20090;-48
2023/03/14 09:06:10;;;;;;;0.52;0.50;;;15.60;53.20;;;9.56;74.05;93952.22;4860676;29;20043;-51
2023/03/14 09:08:37;;;;;;;0.70;0.70;;;15.70;53.30;;;9.52;71.84;93953.88;4861847;29;20117;-49
2023/03/14 09:11:03;;;;;;;0.50;0.50;;;15.80;53.10;;;9.59;72.44;93970.22;4861873;29;20041;-48
2023/03/14 09:13:29;;;;;;;0.57;0.50;;;15.80;52.90;;;9.62;72.42;93964.31;4854800;29;20436;-51
2023/03/14 09:15:57;;;;;;;0.40;0.40;;;15.80;52.80;;;9.66;72.65;93972.47;4861872;29;20104;-50
2023/03/14 09:18:23;;;;;;;1.35;0.50;;;15.80;52.80;;;9.48;72.46;93968.84;4860343;29;20031;-52
2023/03/14 09:20:49;;;;;;;0.60;0.55;;;15.80;52.80;;;9.29;73.33;93963.63;4861645;29;20039;-52
2023/03/14 09:23:16;;;;;;;2.17;0.60;;;15.80;52.40;;;9.35;73.20;93970.41;4861882;29;20092;-48
2023/03/14 09:25:42;;;;;;;1.10;0.50;;;15.80;52.10;;;9.49;73.76;93962.44;4860744;29;20035;-49
2023/03/14 09:28:08;;;;;;;1.42;0.60;;;15.90;52.10;;;9.49;72.44;93949.97;4861586;29;20082;-48
2023/03/14 09:30:34;;;;;;;0.40;0.40;;;15.90;51.90;;;9.57;72.50;93947.69;4860661;29;20024;-52
2023/03/14 09:33:00;;;;;;;0.43;0.43;;;16.00;51.70;;;9.54;72.76;93972.19;4861016;29;20021;-52
2023/03/14 09:35:28;;;;;;;0.98;0.60;;;16.10;51.50;;;9.72;71.93;93973.94;4861557;29;20028;-51
2023/03/14 09:37:53;;;;;;;4.38;0.65;;;16.10;51.50;;;9.85;71.38;93988.31;4860251;29;20362;-48
2023/03/14 09:40:23;;;;;;;1.42;0.50;;;16.20;51.50;;;9.89;72.19;93989.28;4861175;29;20043;-48
2023/03/14 09:42:54;;;;;;;1.17;0.50;;;16.30;51.30;;;9.97;71.51;93999.22;4860488;29;20047;-48
2023/03/14 09:45:39;;;;;;;0.68;0.40;;;16.40;51.30;;;10.04;71.04;93996.16;4875850;29;20033;-47
2023/03/14 09:48:14;;;;;;;0.40;0.40;;;16.40;51.10;;;9.94;71.11;93999.81;4875571;29;20493;-49
2023/03/14 09:50:52;;;;;;;0.60;0.47;;;16.40;51.00;;;9.82;71.84;93996.88;4864419;29;20460;-49
2023/03/14 09:53:45;;;;;;;1.35;0.50;;;16.30;50.90;;;9.86;73.74;93993.31;4861691;29;20033;-47
2023/03/14 09:56:25;;;;;;;1.05;0.40;;;16.20;51.10;;;9.89;73.60;94010.56;4860595;29;20125;-50
2023/03/14 09:59:13;;;;;;;0.45;0.45;;;16.20;51.40;;;9.89;72.49;94016.66;4861387;29;20176;-47
2023/03/14 10:01:39;;;;;;;1.20;0.52;;;16.20;51.40;;;9.87;72.67;94023.34;4854965;29;20077;-51
2023/03/14 10:04:20;;;;;;;0.63;0.60;;;16.20;51.20;;;9.77;74.27;94023.56;4860065;29;20052;-47
2023/03/14 10:06:48;;;;;;;0.88;0.38;;;16.10;51.30;;;9.76;74.90;94022.00;4860354;29;20021;-48
2023/03/14 10:09:25;;;;;;;0.30;0.30;;;15.90;51.50;;;9.59;76.52;94026.06;4861312;29;20024;-48
2023/03/14 10:12:01;;;;;;;2.38;0.50;;;15.80;51.80;;;9.30;74.79;94033.50;4860817;29;20033;-48
2023/03/14 10:14:37;;;;;;;0.75;0.40;;;15.60;51.80;;;9.24;76.20;94040.78;4852963;29;20036;-50
2023/03/14 10:17:12;;;;;;;0.40;0.40;;;15.40;52.10;;;9.24;76.31;94041.56;4860951;29;20484;-51
2023/03/14 10:20:00;;;;;;;0.40;0.40;;;15.20;52.40;;;9.26;76.47;94055.34;4860145;29;20060;-48
2023/03/14 10:22:32;;;;;;;1.60;0.50;;;14.90;52.80;;;9.21;78.14;94063.41;4860983;29;20029;-50
2023/03/14 10:25:07;;;;;;;0.82;0.30;;;14.80;53.10;;;9.24;79.99;94054.06;4863624;29;20021;-48
2023/03/14 10:27:36;;;;;;;0.82;0.40;;;14.70;53.60;;;9.09;81.38;94072.91;4853979;29;20455;-51
2023/03/14 10:30:27;;;;;;;1.35;0.45;;;14.60;53.90;;;8.88;81.47;94065.28;4859825;29;20032;-47
2023/03/14 10:32:53;;;;;;;0.50;0.40;;;14.50;54.30;;;8.62;83.92;94069.41;4873237;29;20523;-48
2023/03/14 10:35:23;;;;;;;0.65;0.50;;;14.30;54.60;;;8.45;86.73;94064.63;4864958;29;20115;-48
2023/03/14 10:38:03;;;;;;;1.10;0.40;;;14.10;55.30;;;8.35;89.11;94082.22;4866630;29;20507;-50
2023/03/14 10:40:40;;;;;;;0.77;0.45;;;14.00;56.00;;;8.36;89.37;94080.34;4853824;29;20032;-47
2023/03/14 10:43:19;;;;;;;0.70;0.38;;;13.90;56.50;;;8.25;88.61;94074.41;4859438;29;20028;-47